Time;durP1;ratioP1;P1;durP2;ratioP2;P2;SDS_P1;SDS_P2;PMS_P1;PMS_P2;Temp;Humidity;BMP_temperature;BMP_pressure;BME280_temperature;BME280_humidity;BME280_pressure;Samples;Min_cycle;Max_cycle;Signal;HPM_P1;HPM_P2
2022/09/19 00:01:52;;;;;;;0.47;0.47;;;11.30;99.90;;;;;;5052898;28;20212;-82
2022/09/19 00:04:24;;;;;;;0.70;0.70;;;11.30;99.90;;;;;;5052652;28;20213;-81
2022/09/19 00:06:53;;;;;;;0.65;0.57;;;11.30;99.90;;;;;;5052293;28;20212;-81
2022/09/19 00:09:24;;;;;;;0.80;0.80;;;11.30;99.90;;;;;;5051722;28;20240;-81
2022/09/19 00:11:53;;;;;;;1.88;1.10;;;11.20;99.90;;;;;;5052403;28;20213;-82
2022/09/19 00:14:24;;;;;;;1.40;0.95;;;11.20;99.90;;;;;;5052230;28;20206;-82
2022/09/19 00:16:57;;;;;;;0.98;0.88;;;11.20;99.90;;;;;;5052716;28;20275;-81
2022/09/19 00:19:28;;;;;;;1.88;1.17;;;11.20;99.90;;;;;;5052514;28;20226;-81
2022/09/19 00:21:58;;;;;;;0.80;0.80;;;11.20;99.90;;;;;;5052437;28;20205;-82
2022/09/19 00:27:15;;;;;;;1.35;1.20;;;11.20;99.90;;;;;;5052599;28;20209;-82
2022/09/19 00:29:43;;;;;;;1.40;0.70;;;11.10;99.90;;;;;;5052221;28;20230;-82
2022/09/19 00:32:13;;;;;;;1.02;0.82;;;11.20;99.90;;;;;;5052270;28;20216;-81
2022/09/19 00:34:45;;;;;;;0.80;0.80;;;11.20;99.90;;;;;;5052124;28;20205;-81
2022/09/19 00:37:13;;;;;;;0.63;0.63;;;11.20;99.90;;;;;;5052371;28;20218;-81
2022/09/19 00:39:42;;;;;;;0.45;0.45;;;11.20;99.90;;;;;;5051721;28;20229;-83
2022/09/19 00:42:16;;;;;;;0.60;0.60;;;11.20;99.90;;;;;;5052911;28;20206;-82
2022/09/19 00:44:57;;;;;;;1.08;0.82;;;11.20;99.90;;;;;;5056026;28;20210;-82
2022/09/19 00:47:33;;;;;;;1.20;1.10;;;11.20;99.90;;;;;;5055851;28;20217;-80
2022/09/19 00:50:09;;;;;;;0.60;0.60;;;11.10;99.90;;;;;;5055901;28;20229;-83
2022/09/19 00:52:43;;;;;;;0.63;0.63;;;11.20;99.90;;;;;;5055884;28;20209;-80
2022/09/19 00:55:11;;;;;;;1.90;0.90;;;11.20;99.90;;;;;;5055926;28;20210;-81
2022/09/19 00:57:49;;;;;;;0.70;0.70;;;11.20;99.90;;;;;;5055830;28;20206;-81
2022/09/19 01:00:17;;;;;;;1.63;1.08;;;11.20;99.90;;;;;;5055153;28;20229;-83
2022/09/19 01:02:46;;;;;;;0.50;0.50;;;11.20;99.90;;;;;;5055541;28;20198;-81
2022/09/19 01:05:17;;;;;;;0.77;0.77;;;11.20;99.90;;;;;;5055405;28;20217;-82
2022/09/19 01:08:01;;;;;;;1.35;1.02;;;11.20;99.90;;;;;;5055516;28;20210;-80
2022/09/19 01:10:43;;;;;;;2.78;1.10;;;11.20;99.90;;;;;;5055330;28;20216;-81
2022/09/19 01:13:16;;;;;;;1.17;0.75;;;11.20;99.90;;;;;;5055292;28;20217;-81
2022/09/19 01:15:53;;;;;;;1.65;1.40;;;11.20;99.90;;;;;;5055345;28;20216;-81
2022/09/19 01:18:26;;;;;;;0.68;0.68;;;11.20;99.90;;;;;;5055040;28;20217;-81
2022/09/19 01:24:37;;;;;;;3.30;1.02;;;11.20;99.90;;;;;;5055449;28;20216;-81
2022/09/19 01:27:32;;;;;;;0.95;0.90;;;11.20;99.90;;;;;;5022755;28;20205;-81
2022/09/19 01:30:05;;;;;;;1.15;1.08;;;11.10;99.90;;;;;;5054571;28;20226;-81
2022/09/19 01:32:37;;;;;;;0.80;0.80;;;11.20;99.90;;;;;;5055141;28;20213;-80
2022/09/19 01:35:10;;;;;;;1.00;0.90;;;11.20;99.90;;;;;;5055223;28;20197;-81
2022/09/19 01:37:43;;;;;;;1.13;1.00;;;11.20;99.90;;;;;;5054894;28;20206;-81
2022/09/19 01:40:13;;;;;;;0.93;0.93;;;11.20;99.90;;;;;;5054456;28;20225;-82
2022/09/19 01:42:59;;;;;;;0.77;0.77;;;11.20;99.90;;;;;;5054726;28;20216;-81
2022/09/19 01:45:32;;;;;;;0.98;0.80;;;11.20;99.90;;;;;;5055105;28;20209;-81
2022/09/19 01:48:08;;;;;;;0.85;0.65;;;11.20;99.90;;;;;;5054660;28;20216;-81
2022/09/19 01:50:47;;;;;;;1.45;0.80;;;11.20;99.90;;;;;;5054517;28;20217;-81
2022/09/19 01:53:23;;;;;;;0.90;0.80;;;11.10;99.90;;;;;;5054691;28;20209;-81
2022/09/19 01:56:02;;;;;;;4.00;1.10;;;11.10;99.90;;;;;;5054534;28;20229;-81
2022/09/19 01:58:40;;;;;;;0.47;0.47;;;11.00;99.90;;;;;;5054447;28;20228;-81
2022/09/19 02:01:18;;;;;;;1.13;1.02;;;10.80;99.90;;;;;;5054923;28;20213;-80
2022/09/19 02:03:54;;;;;;;0.85;0.68;;;10.70;99.90;;;;;;5054760;28;20205;-81
2022/09/19 02:06:35;;;;;;;2.40;0.73;;;10.60;99.90;;;;;;5054528;28;20205;-81
2022/09/19 02:09:09;;;;;;;0.63;0.63;;;10.50;99.90;;;;;;5053969;28;20230;-81
2022/09/19 02:11:37;;;;;;;0.57;0.57;;;10.30;99.90;;;;;;5054554;28;20213;-81
2022/09/19 02:14:10;;;;;;;0.50;0.50;;;10.20;99.90;;;;;;5053898;28;20201;-82
2022/09/19 02:16:46;;;;;;;1.00;0.90;;;10.10;99.90;;;;;;5053933;28;20218;-82
2022/09/19 02:19:19;;;;;;;0.60;0.60;;;10.00;99.90;;;;;;5053622;28;20225;-82
2022/09/19 02:21:53;;;;;;;0.70;0.70;;;9.90;99.90;;;;;;5054026;28;20201;-83
2022/09/19 02:24:28;;;;;;;0.60;0.60;;;9.80;99.90;;;;;;5054059;28;20213;-84
2022/09/19 02:27:09;;;;;;;0.65;0.55;;;9.80;99.90;;;;;;5053901;28;20220;-84
2022/09/19 02:29:41;;;;;;;0.32;0.32;;;9.70;99.90;;;;;;5053363;28;20222;-85
2022/09/19 02:32:14;;;;;;;1.83;0.85;;;9.60;99.90;;;;;;5053871;28;20221;-85
2022/09/19 02:34:43;;;;;;;1.65;0.60;;;9.50;99.90;;;;;;5053736;28;20209;-83
2022/09/19 02:37:21;;;;;;;0.70;0.50;;;9.40;99.90;;;;;;5053544;28;20201;-83
2022/09/19 02:39:55;;;;;;;0.82;0.55;;;9.40;99.90;;;;;;5053536;28;20240;-84
2022/09/19 02:42:34;;;;;;;0.30;0.30;;;9.40;99.90;;;;;;5053363;28;20236;-84
2022/09/19 02:45:11;;;;;;;0.50;0.50;;;9.40;99.90;;;;;;5053652;28;20216;-83
2022/09/19 02:47:47;;;;;;;0.30;0.30;;;9.30;99.90;;;;;;5053345;28;20206;-84
2022/09/19 02:50:21;;;;;;;0.30;0.30;;;9.30;99.90;;;;;;5053214;28;20236;-84
2022/09/19 02:52:52;;;;;;;0.52;0.52;;;9.30;99.90;;;;;;5053550;28;20216;-83
2022/09/19 02:55:25;;;;;;;0.47;0.43;;;9.20;99.90;;;;;;5053323;28;20216;-84
2022/09/19 02:57:58;;;;;;;0.50;0.50;;;9.20;99.90;;;;;;5053270;28;20217;-83
2022/09/19 03:00:27;;;;;;;0.35;0.30;;;9.20;99.90;;;;;;5052978;28;20212;-84
2022/09/19 03:03:02;;;;;;;0.40;0.40;;;9.20;99.90;;;;;;5053505;28;20218;-83
2022/09/19 03:05:51;;;;;;;0.40;0.40;;;9.10;99.90;;;;;;5052661;28;20206;-83
2022/09/19 03:08:24;;;;;;;0.85;0.73;;;9.10;99.90;;;;;;5052856;28;20230;-83
2022/09/19 03:10:56;;;;;;;0.73;0.68;;;9.10;99.90;;;;;;5053020;28;20228;-83
2022/09/19 03:13:25;;;;;;;0.55;0.55;;;9.10;99.90;;;;;;5052940;28;20209;-83
2022/09/19 03:16:02;;;;;;;0.80;0.80;;;9.10;99.90;;;;;;5053008;28;20227;-83
2022/09/19 03:18:34;;;;;;;0.73;0.60;;;9.10;99.90;;;;;;5052964;28;20247;-83
2022/09/19 03:21:07;;;;;;;0.47;0.47;;;9.10;99.90;;;;;;5053133;28;20213;-83
2022/09/19 03:23:40;;;;;;;0.50;0.50;;;9.10;99.90;;;;;;5053056;28;20217;-84
2022/09/19 03:26:11;;;;;;;0.45;0.45;;;9.20;99.90;;;;;;5052678;28;20214;-83
2022/09/19 03:28:39;;;;;;;0.80;0.80;;;9.10;99.90;;;;;;5052494;28;20237;-83
2022/09/19 03:31:08;;;;;;;0.88;0.75;;;9.10;99.90;;;;;;5052411;28;20226;-83
2022/09/19 03:33:39;;;;;;;0.70;0.70;;;9.20;99.90;;;;;;5052565;28;20261;-83
2022/09/19 03:36:08;;;;;;;0.50;0.50;;;9.20;99.90;;;;;;5052618;28;20201;-83
2022/09/19 03:38:44;;;;;;;0.60;0.60;;;9.20;99.90;;;;;;5052118;28;20302;-83
2022/09/19 03:41:13;;;;;;;0.45;0.45;;;9.30;99.90;;;;;;5052601;28;20228;-83
2022/09/19 03:43:42;;;;;;;0.80;0.80;;;9.30;99.90;;;;;;5052766;28;20198;-83
2022/09/19 03:46:11;;;;;;;1.23;0.90;;;9.30;99.90;;;;;;5052911;28;20212;-83
2022/09/19 03:48:44;;;;;;;1.10;0.80;;;9.30;99.90;;;;;;5052204;28;20225;-83
2022/09/19 03:51:13;;;;;;;1.00;0.90;;;9.30;99.90;;;;;;5052115;28;20221;-83
2022/09/19 03:53:42;;;;;;;0.60;0.60;;;9.30;99.90;;;;;;5052711;28;20216;-84
2022/09/19 03:56:11;;;;;;;0.47;0.47;;;9.30;99.90;;;;;;5052407;28;20209;-83
2022/09/19 03:58:40;;;;;;;0.90;0.90;;;9.40;99.90;;;;;;5052521;28;20237;-83
2022/09/19 04:01:09;;;;;;;2.30;1.08;;;9.40;99.90;;;;;;5052614;28;20209;-83
2022/09/19 04:03:38;;;;;;;0.80;0.80;;;9.40;99.90;;;;;;5052050;28;20267;-84
2022/09/19 04:06:09;;;;;;;0.98;0.98;;;9.50;99.90;;;;;;5052469;28;20213;-83
2022/09/19 04:08:37;;;;;;;0.68;0.68;;;9.50;99.90;;;;;;5051982;28;20228;-83
2022/09/19 04:11:06;;;;;;;0.90;0.90;;;9.50;99.90;;;;;;5052391;28;20218;-84
2022/09/19 04:13:35;;;;;;;0.70;0.70;;;9.50;99.90;;;;;;5052296;28;20217;-83
2022/09/19 04:16:04;;;;;;;1.17;0.90;;;9.50;99.90;;;;;;5052002;28;20212;-83
2022/09/19 04:18:34;;;;;;;0.70;0.70;;;9.50;99.90;;;;;;5053679;28;20232;-82
2022/09/19 04:21:03;;;;;;;4.93;0.82;;;9.50;99.90;;;;;;5056304;28;20205;-82
2022/09/19 04:23:33;;;;;;;1.98;0.90;;;9.60;99.90;;;;;;5056410;28;20237;-83
2022/09/19 04:26:05;;;;;;;0.73;0.73;;;9.60;99.90;;;;;;5056185;28;20205;-83
2022/09/19 04:28:35;;;;;;;1.90;0.90;;;9.60;99.90;;;;;;5055724;28;20241;-82
2022/09/19 04:31:04;;;;;;;1.00;0.90;;;9.60;99.90;;;;;;5055597;28;20226;-82
2022/09/19 04:33:32;;;;;;;0.47;0.47;;;9.40;99.90;;;;;;5055800;28;20213;-82
2022/09/19 04:36:00;;;;;;;0.93;0.68;;;9.40;99.90;;;;;;5055893;28;20210;-82
2022/09/19 04:38:30;;;;;;;0.75;0.70;;;9.40;99.90;;;;;;5055782;28;20230;-83
2022/09/19 04:41:01;;;;;;;1.48;1.15;;;9.40;99.90;;;;;;5055908;28;20198;-82
2022/09/19 04:43:31;;;;;;;0.63;0.63;;;9.30;99.90;;;;;;5055903;28;20198;-83
2022/09/19 04:46:01;;;;;;;0.55;0.55;;;9.40;99.90;;;;;;5055905;28;20216;-83
2022/09/19 04:48:30;;;;;;;2.15;0.63;;;9.30;99.90;;;;;;5055567;28;20229;-83
2022/09/19 04:50:58;;;;;;;0.60;0.60;;;9.30;99.90;;;;;;5055614;28;20226;-82
2022/09/19 04:53:27;;;;;;;0.80;0.80;;;9.30;99.90;;;;;;5055862;28;20206;-82
2022/09/19 04:55:56;;;;;;;0.40;0.40;;;9.30;99.90;;;;;;5055731;28;20208;-83
2022/09/19 04:58:26;;;;;;;0.82;0.82;;;9.30;99.90;;;;;;5055121;28;20225;-83
2022/09/19 05:00:56;;;;;;;1.38;0.80;;;9.30;99.90;;;;;;5055710;28;20198;-83
2022/09/19 05:03:26;;;;;;;0.50;0.50;;;9.30;99.90;;;;;;5055993;28;20267;-83
2022/09/19 05:05:55;;;;;;;1.48;0.90;;;9.30;99.90;;;;;;5055565;28;20201;-83
2022/09/19 05:08:27;;;;;;;0.88;0.88;;;9.30;99.90;;;;;;5055273;28;20232;-83
2022/09/19 05:10:56;;;;;;;1.10;1.00;;;9.30;99.90;;;;;;5054954;28;20220;-83
2022/09/19 05:13:28;;;;;;;0.88;0.88;;;9.30;99.90;;;;;;5054966;28;20232;-83
2022/09/19 05:15:59;;;;;;;0.80;0.80;;;9.40;99.90;;;;;;5055318;28;20206;-83
2022/09/19 05:18:30;;;;;;;0.68;0.68;;;9.40;99.90;;;;;;5054908;28;20238;-83
2022/09/19 05:21:03;;;;;;;0.45;0.45;;;9.50;99.90;;;;;;5054915;28;20202;-83
2022/09/19 05:23:31;;;;;;;1.58;0.95;;;9.50;99.90;;;;;;5055092;28;20225;-83
2022/09/19 05:26:04;;;;;;;0.70;0.70;;;9.40;99.90;;;;;;5054867;28;20210;-83
2022/09/19 05:28:34;;;;;;;0.95;0.90;;;9.50;99.90;;;;;;5054219;28;20236;-83
2022/09/19 05:31:05;;;;;;;0.80;0.70;;;9.40;99.90;;;;;;5054924;28;20234;-83
2022/09/19 05:33:34;;;;;;;0.50;0.50;;;9.50;99.90;;;;;;5055233;28;20205;-83
2022/09/19 05:36:03;;;;;;;1.17;0.90;;;9.40;99.90;;;;;;5055047;28;20210;-83
2022/09/19 05:38:33;;;;;;;0.52;0.52;;;9.40;99.90;;;;;;5054936;28;20244;-83
2022/09/19 05:41:03;;;;;;;0.43;0.43;;;9.40;99.90;;;;;;5054492;28;20205;-83
2022/09/19 05:43:33;;;;;;;0.50;0.50;;;9.40;99.90;;;;;;5054816;28;20218;-83
2022/09/19 05:46:02;;;;;;;0.65;0.65;;;9.50;99.90;;;;;;5054633;28;20209;-83
2022/09/19 05:48:30;;;;;;;0.70;0.70;;;9.50;99.90;;;;;;5054243;28;20226;-83
2022/09/19 05:50:59;;;;;;;0.60;0.60;;;9.50;99.90;;;;;;5054650;28;20257;-83
2022/09/19 05:56:13;;;;;;;0.70;0.57;;;9.50;99.90;;;;;;5054357;28;20205;-83
2022/09/19 05:58:54;;;;;;;0.82;0.80;;;9.60;99.90;;;;;;5054069;28;20308;-82
2022/09/19 06:01:22;;;;;;;0.70;0.70;;;9.60;99.90;;;;;;5053767;28;20206;-82
2022/09/19 06:03:57;;;;;;;0.47;0.45;;;9.60;99.90;;;;;;5053683;28;20213;-82
2022/09/19 06:06:25;;;;;;;0.70;0.60;;;9.60;99.90;;;;;;5054093;28;20197;-82
2022/09/19 06:08:57;;;;;;;0.60;0.60;;;9.60;99.90;;;;;;5053071;28;20295;-82
2022/09/19 06:11:25;;;;;;;0.50;0.47;;;9.60;99.90;;;;;;5053865;28;20240;-83
2022/09/19 06:16:41;;;;;;;1.20;0.55;;;9.60;99.90;;;;;;5052239;28;20201;-82
2022/09/19 06:19:10;;;;;;;0.68;0.68;;;9.50;99.90;;;;;;5054128;28;20222;-83
2022/09/19 06:21:38;;;;;;;1.38;0.90;;;9.50;99.90;;;;;;5054346;28;20206;-82
2022/09/19 06:24:07;;;;;;;1.10;0.70;;;9.50;99.90;;;;;;5054216;28;20280;-82
2022/09/19 06:26:36;;;;;;;0.50;0.50;;;9.50;99.90;;;;;;5054292;28;20208;-83
2022/09/19 06:29:07;;;;;;;0.73;0.73;;;9.50;99.90;;;;;;5053688;28;20229;-83
2022/09/19 06:31:37;;;;;;;0.47;0.47;;;9.50;99.90;;;;;;5054080;28;20224;-82
2022/09/19 06:34:05;;;;;;;1.75;0.88;;;9.50;99.90;;;;;;5053851;28;20263;-82
2022/09/19 06:36:34;;;;;;;0.73;0.73;;;9.50;99.90;;;;;;5053931;28;20225;-82
2022/09/19 06:39:02;;;;;;;0.80;0.80;;;9.60;99.90;;;;;;5053090;28;20230;-82
2022/09/19 06:41:31;;;;;;;0.80;0.60;;;9.60;99.90;;;;;;5052997;28;20205;-82
2022/09/19 06:44:01;;;;;;;1.17;0.85;;;9.70;99.90;;;;;;5053815;28;20202;-81
2022/09/19 06:46:32;;;;;;;0.95;0.77;;;9.70;99.90;;;;;;5053639;28;20290;-81
2022/09/19 06:49:01;;;;;;;0.73;0.57;;;9.80;99.90;;;;;;5054034;28;20451;-82
2022/09/19 06:51:30;;;;;;;0.40;0.40;;;9.80;99.90;;;;;;5053626;28;20300;-81
2022/09/19 06:53:58;;;;;;;0.52;0.52;;;9.90;99.90;;;;;;5053870;28;20197;-82
2022/09/19 06:56:26;;;;;;;0.45;0.45;;;10.00;99.90;;;;;;5053721;28;20190;-82
2022/09/19 06:58:55;;;;;;;1.80;0.88;;;10.10;99.90;;;;;;5053517;28;20305;-81
2022/09/19 07:01:23;;;;;;;0.38;0.30;;;10.20;99.90;;;;;;5053231;28;20200;-83
2022/09/19 07:03:53;;;;;;;1.20;0.70;;;10.30;99.90;;;;;;5053637;28;20194;-84
2022/09/19 07:06:21;;;;;;;0.55;0.55;;;10.30;99.90;;;;;;5053262;28;20208;-84
2022/09/19 07:08:50;;;;;;;0.50;0.50;;;10.40;99.90;;;;;;5053204;28;20228;-85
2022/09/19 07:11:18;;;;;;;1.13;0.60;;;10.40;99.90;;;;;;5053383;28;20223;-82
2022/09/19 07:13:50;;;;;;;0.68;0.68;;;10.40;99.90;;;;;;5052854;28;20224;-81
2022/09/19 07:16:40;;;;;;;0.45;0.45;;;10.40;99.90;;;;;;5053673;28;20210;-81
2022/09/19 07:19:10;;;;;;;0.38;0.30;;;10.50;99.90;;;;;;5053438;28;20249;-82
2022/09/19 07:21:38;;;;;;;0.52;0.52;;;10.60;99.90;;;;;;5053607;28;20205;-82
2022/09/19 07:24:07;;;;;;;0.35;0.35;;;10.50;99.90;;;;;;5053495;28;20210;-82
2022/09/19 07:26:39;;;;;;;0.60;0.60;;;10.60;99.90;;;;;;5053435;28;20206;-81
2022/09/19 07:29:13;;;;;;;0.50;0.50;;;10.60;99.90;;;;;;5053140;28;20236;-82
2022/09/19 07:31:42;;;;;;;0.80;0.80;;;10.50;99.90;;;;;;5052611;28;20310;-82
2022/09/19 07:34:12;;;;;;;1.45;0.80;;;10.50;99.90;;;;;;5052896;28;20209;-82
2022/09/19 07:36:40;;;;;;;0.85;0.50;;;10.30;99.90;;;;;;5052851;28;20212;-83
2022/09/19 07:39:09;;;;;;;0.60;0.60;;;10.20;99.90;;;;;;5052871;28;20210;-83
2022/09/19 07:41:38;;;;;;;2.40;0.77;;;10.20;99.90;;;;;;5053165;28;20209;-82
2022/09/19 07:44:06;;;;;;;0.60;0.60;;;10.20;99.90;;;;;;5053387;28;20208;-86
2022/09/19 07:46:34;;;;;;;0.60;0.60;;;10.20;99.90;;;;;;5053154;28;20236;-82
2022/09/19 07:49:03;;;;;;;0.47;0.47;;;10.10;99.90;;;;;;5052852;28;20217;-82
2022/09/19 07:51:33;;;;;;;0.50;0.50;;;10.10;99.90;;;;;;5052465;28;20221;-82
2022/09/19 07:54:01;;;;;;;0.90;0.88;;;10.00;99.90;;;;;;5052988;28;20217;-82
2022/09/19 07:56:30;;;;;;;0.60;0.60;;;10.00;99.90;;;;;;5052586;28;20281;-82
2022/09/19 07:58:58;;;;;;;3.17;0.82;;;9.90;99.90;;;;;;5052801;28;20296;-83
2022/09/19 08:01:27;;;;;;;0.82;0.60;;;9.80;99.90;;;;;;5052598;28;20285;-83
2022/09/19 08:03:55;;;;;;;0.85;0.85;;;9.70;99.90;;;;;;5053016;28;20209;-83
2022/09/19 08:06:23;;;;;;;0.85;0.80;;;9.60;99.90;;;;;;5052446;28;20280;-84
2022/09/19 08:08:54;;;;;;;0.60;0.60;;;9.50;99.90;;;;;;5052614;28;20232;-84
2022/09/19 08:11:23;;;;;;;0.45;0.45;;;9.40;99.90;;;;;;5052616;28;20228;-87
2022/09/19 08:13:51;;;;;;;0.75;0.55;;;9.30;99.90;;;;;;5052860;28;20288;-85
2022/09/19 08:16:20;;;;;;;0.60;0.60;;;9.30;99.90;;;;;;5052435;28;20198;-86
2022/09/19 08:18:48;;;;;;;0.50;0.50;;;9.10;99.90;;;;;;5052139;28;20228;-85
2022/09/19 08:21:16;;;;;;;0.90;0.90;;;9.00;99.90;;;;;;5051993;28;20233;-86
2022/09/19 08:23:45;;;;;;;0.63;0.63;;;9.00;99.90;;;;;;5052919;28;20202;-86
2022/09/19 08:26:15;;;;;;;0.77;0.77;;;8.90;99.90;;;;;;5052382;28;20212;-86
2022/09/19 08:28:43;;;;;;;1.35;0.77;;;8.80;99.90;;;;;;5052461;28;20232;-87
2022/09/19 08:31:13;;;;;;;0.50;0.50;;;8.70;99.90;;;;;;5048108;28;20229;-87
2022/09/19 08:33:42;;;;;;;1.02;0.80;;;8.70;99.90;;;;;;5035086;28;20308;-86
2022/09/19 08:36:10;;;;;;;0.63;0.63;;;8.70;99.90;;;;;;5052875;28;20202;-86
2022/09/19 08:38:39;;;;;;;0.55;0.55;;;8.70;99.90;;;;;;5052385;28;20235;-87
2022/09/19 08:41:28;;;;;;;0.85;0.82;;;8.80;99.90;;;;;;5052815;28;20290;-86
2022/09/19 08:44:03;;;;;;;0.65;0.65;;;8.80;99.90;;;;;;5052490;28;20201;-87
2022/09/19 08:46:38;;;;;;;1.00;0.70;;;8.80;99.90;;;;;;5052716;28;20220;-87
2022/09/19 08:49:14;;;;;;;0.45;0.45;;;8.90;99.90;;;;;;5052131;28;20233;-87
2022/09/19 08:51:52;;;;;;;0.63;0.63;;;8.90;99.90;;;;;;5052581;28;20198;-87
2022/09/19 08:54:28;;;;;;;0.98;0.65;;;9.00;99.90;;;;;;5051694;28;20193;-87
2022/09/19 08:56:59;;;;;;;1.00;0.90;;;9.10;99.90;;;;;;5052021;28;20208;-87
2022/09/19 08:59:31;;;;;;;1.38;1.27;;;9.20;99.90;;;;;;5032479;28;20237;-88
2022/09/19 09:02:08;;;;;;;1.05;0.98;;;9.30;99.90;;;;;;5032715;28;20217;-88
2022/09/19 09:04:54;;;;;;;1.25;0.73;;;9.40;99.90;;;;;;5034659;28;20210;-88
2022/09/19 09:07:41;;;;;;;1.00;0.80;;;9.50;99.90;;;;;;5038603;28;20229;-88
2022/09/19 09:10:22;;;;;;;0.45;0.45;;;9.60;99.90;;;;;;5055749;28;20230;-88
2022/09/19 09:13:04;;;;;;;0.45;0.45;;;9.70;99.90;;;;;;5055098;28;20213;-88
2022/09/19 09:15:43;;;;;;;0.82;0.82;;;10.30;99.90;;;;;;5056236;28;20198;-87
2022/09/19 09:18:44;;;;;;;1.00;0.65;;;11.10;99.90;;;;;;5054902;28;20226;-87
2022/09/19 09:21:23;;;;;;;0.60;0.60;;;11.80;99.90;;;;;;5055663;28;20190;-91
2022/09/19 09:24:04;;;;;;;0.88;0.88;;;12.20;99.90;;;;;;5056086;28;20205;-86
2022/09/19 09:26:57;;;;;;;0.65;0.65;;;12.50;99.90;;;;;;5055000;28;20206;-87
2022/09/19 09:29:35;;;;;;;0.60;0.60;;;12.90;99.90;;;;;;5054484;28;20234;-86
2022/09/19 09:32:09;;;;;;;0.75;0.70;;;13.30;99.90;;;;;;5055049;28;20209;-87
2022/09/19 09:34:43;;;;;;;0.63;0.50;;;13.60;99.90;;;;;;5054592;28;20204;-85
2022/09/19 09:37:21;;;;;;;0.40;0.40;;;13.90;99.90;;;;;;5054827;28;20206;-85
2022/09/19 09:40:09;;;;;;;0.52;0.52;;;14.30;99.90;;;;;;5054398;28;20225;-85
2022/09/19 09:42:45;;;;;;;1.10;0.80;;;14.40;99.90;;;;;;5054757;28;20201;-85
2022/09/19 09:45:28;;;;;;;0.30;0.30;;;14.30;99.90;;;;;;5054963;28;20209;-85
2022/09/19 09:48:08;;;;;;;0.70;0.70;;;14.40;99.90;;;;;;5054332;28;20206;-84
2022/09/19 09:50:50;;;;;;;0.63;0.60;;;14.50;99.90;;;;;;5054107;28;20217;-83
2022/09/19 09:53:33;;;;;;;0.95;0.95;;;14.60;99.90;;;;;;5054517;28;20221;-84
2022/09/19 09:56:21;;;;;;;0.60;0.60;;;14.70;99.90;;;;;;5054490;28;20213;-84
2022/09/19 10:03:33;;;;;;;0.25;0.25;;;14.60;99.90;;;;;;5053770;28;20232;-84
2022/09/19 10:05:05;;;;;;;2.05;0.90;;;14.20;99.90;;;;;;5054022;28;20209;-84
2022/09/19 10:07:41;;;;;;;0.52;0.40;;;14.50;99.90;;;;;;5054190;28;20205;-83
2022/09/19 10:10:14;;;;;;;0.60;0.60;;;14.50;99.90;;;;;;5054136;28;20232;-83
2022/09/19 10:12:49;;;;;;;1.00;0.52;;;14.40;99.90;;;;;;5053993;28;20228;-82
2022/09/19 10:15:28;;;;;;;0.68;0.65;;;14.10;99.90;;;;;;5053911;28;20216;-84
2022/09/19 10:18:08;;;;;;;1.05;0.70;;;14.00;99.90;;;;;;5054143;28;20229;-85
2022/09/19 10:20:39;;;;;;;1.02;0.90;;;13.60;99.90;;;;;;5054132;28;20237;-84
2022/09/19 10:23:15;;;;;;;0.75;0.75;;;13.80;99.90;;;;;;5053945;28;20208;-85
2022/09/19 10:25:49;;;;;;;0.73;0.73;;;14.00;99.90;;;;;;5053944;28;20259;-85
2022/09/19 10:28:24;;;;;;;1.20;0.93;;;14.30;99.90;;;;;;5053835;28;20244;-84
2022/09/19 10:30:58;;;;;;;0.73;0.73;;;13.90;99.90;;;;;;5054093;28;20250;-83
2022/09/19 10:33:38;;;;;;;0.55;0.55;;;12.80;99.90;;;;;;5053784;28;20222;-84
2022/09/19 10:36:16;;;;;;;0.70;0.70;;;12.10;99.90;;;;;;5053450;28;20259;-84
2022/09/19 10:38:50;;;;;;;1.00;0.90;;;12.30;99.90;;;;;;5053801;28;20235;-85
2022/09/19 10:41:22;;;;;;;0.68;0.68;;;12.70;99.90;;;;;;5053610;28;20202;-84
2022/09/19 10:43:53;;;;;;;0.65;0.65;;;13.10;99.90;;;;;;5053853;28;20225;-84
2022/09/19 10:46:23;;;;;;;0.85;0.85;;;13.60;99.90;;;;;;5053848;28;20203;-84
2022/09/19 10:48:56;;;;;;;0.63;0.63;;;14.20;99.90;;;;;;5053209;28;20222;-84
2022/09/19 10:51:32;;;;;;;0.77;0.77;;;14.70;99.90;;;;;;5053401;28;20209;-84
2022/09/19 10:54:01;;;;;;;0.65;0.65;;;14.60;99.90;;;;;;5053024;28;20252;-84
2022/09/19 10:56:34;;;;;;;0.47;0.47;;;14.80;99.90;;;;;;5052803;28;20208;-84
2022/09/19 10:59:07;;;;;;;1.30;1.05;;;14.90;99.90;;;;;;5053244;28;20225;-84
2022/09/19 11:01:36;;;;;;;1.77;1.02;;;15.30;99.90;;;;;;5053334;28;20208;-83
2022/09/19 11:04:21;;;;;;;0.80;0.80;;;15.60;99.90;;;;;;5053054;28;20208;-83
2022/09/19 11:06:57;;;;;;;0.70;0.70;;;16.00;99.90;;;;;;5053367;28;20267;-84
2022/09/19 11:09:28;;;;;;;0.70;0.70;;;15.80;99.90;;;;;;5052960;28;20229;-84
2022/09/19 11:12:04;;;;;;;1.05;0.95;;;15.90;99.90;;;;;;5053204;28;20240;-84
2022/09/19 11:14:35;;;;;;;0.77;0.77;;;16.00;99.90;;;;;;5053236;28;20213;-84
2022/09/19 11:17:30;;;;;;;0.70;0.70;;;15.80;99.90;;;;;;5053768;28;20293;-84
2022/09/19 11:20:19;;;;;;;1.05;0.95;;;15.80;99.90;;;;;;5054591;28;20230;-82
2022/09/19 11:23:28;;;;;;;0.95;0.70;;;16.00;99.90;;;;;;5052853;28;20296;-82
2022/09/19 11:26:04;;;;;;;0.75;0.75;;;16.30;99.90;;;;;;5052711;28;20209;-82
2022/09/19 11:28:43;;;;;;;0.68;0.68;;;16.50;99.90;;;;;;5052370;28;20238;-82
2022/09/19 11:31:24;;;;;;;0.77;0.77;;;17.00;99.90;;;;;;5052771;28;20217;-82
2022/09/19 11:34:26;;;;;;;1.45;1.02;;;17.20;99.90;;;;;;5051950;28;20217;-83
2022/09/19 11:37:29;;;;;;;1.42;0.47;;;17.10;99.90;;;;;;5052363;28;20247;-82
2022/09/19 11:40:15;;;;;;;0.95;0.90;;;16.40;99.90;;;;;;5051912;28;20230;-82
2022/09/19 11:42:58;;;;;;;0.50;0.50;;;16.40;99.90;;;;;;5052979;28;20210;-84
2022/09/19 11:45:33;;;;;;;0.63;0.63;;;16.40;99.90;;;;;;5052528;28;20201;-83
2022/09/19 11:48:36;;;;;;;0.52;0.52;;;16.40;99.90;;;;;;5052216;28;20205;-82
2022/09/19 11:51:15;;;;;;;0.47;0.32;;;15.90;99.90;;;;;;5045638;28;20240;-82
2022/09/19 11:54:00;;;;;;;0.52;0.47;;;15.40;99.90;;;;;;5052523;28;20235;-82
2022/09/19 11:56:46;;;;;;;0.77;0.77;;;15.30;99.90;;;;;;5052533;28;20194;-83
2022/09/19 11:59:32;;;;;;;0.75;0.70;;;15.70;99.90;;;;;;5052397;28;20225;-82
2022/09/19 12:02:20;;;;;;;1.10;1.00;;;15.70;99.90;;;;;;5052064;28;20209;-82
2022/09/19 12:05:03;;;;;;;1.42;0.88;;;15.40;99.90;;;;;;5052110;28;20215;-82
2022/09/19 12:07:42;;;;;;;0.55;0.55;;;15.40;99.90;;;;;;5052145;28;20215;-82
2022/09/19 12:10:18;;;;;;;0.38;0.38;;;14.80;99.90;;;;;;5052372;28;20236;-83
2022/09/19 12:12:55;;;;;;;1.10;1.00;;;14.80;99.90;;;;;;5052212;28;20206;-81
2022/09/19 12:15:27;;;;;;;1.17;0.98;;;14.80;99.90;;;;;;5052090;28;20228;-83
2022/09/19 12:18:00;;;;;;;0.70;0.70;;;14.10;99.90;;;;;;5051559;28;20209;-84
2022/09/19 12:20:39;;;;;;;0.80;0.80;;;13.50;99.90;;;;;;5059645;28;20229;-83
2022/09/19 12:26:05;;;;;;;0.75;0.75;;;13.30;99.90;;;;;;5052879;28;20210;-83
2022/09/19 12:28:40;;;;;;;0.68;0.68;;;13.00;99.90;;;;;;5052153;28;20233;-83
2022/09/19 12:31:12;;;;;;;1.50;1.38;;;12.90;99.90;;;;;;5051589;28;20207;-83
2022/09/19 12:33:50;;;;;;;2.28;1.13;;;12.60;99.90;;;;;;5051682;28;20204;-83
2022/09/19 12:36:25;;;;;;;1.50;1.25;;;12.60;99.90;;;;;;5052298;28;20204;-83
2022/09/19 12:38:57;;;;;;;0.60;0.60;;;12.60;99.90;;;;;;5053096;28;20228;-84
2022/09/19 12:41:39;;;;;;;1.05;1.05;;;12.60;99.90;;;;;;5036585;28;20214;-83
2022/09/19 12:44:19;;;;;;;1.35;0.90;;;12.40;99.90;;;;;;5036717;28;20197;-82
2022/09/19 12:46:56;;;;;;;0.80;0.80;;;12.10;99.90;;;;;;5036372;28;20198;-83
2022/09/19 12:49:36;;;;;;;1.52;1.23;;;12.10;99.90;;;;;;5036229;28;20286;-82
2022/09/19 12:52:12;;;;;;;0.90;0.90;;;11.90;99.90;;;;;;5041540;28;20280;-83
2022/09/19 12:54:51;;;;;;;1.25;1.15;;;11.80;99.90;;;;;;5055873;28;20220;-83
2022/09/19 12:57:25;;;;;;;1.83;1.17;;;11.70;99.90;;;;;;5056220;28;20233;-84
2022/09/19 12:59:54;;;;;;;0.93;0.93;;;11.70;99.90;;;;;;5055606;28;20310;-83
2022/09/19 13:02:29;;;;;;;1.58;1.15;;;11.70;99.90;;;;;;5055898;28;20212;-83
2022/09/19 13:05:02;;;;;;;1.02;0.98;;;11.70;99.90;;;;;;5056125;28;20200;-83
2022/09/19 13:07:38;;;;;;;1.15;1.05;;;11.90;99.90;;;;;;5055636;28;20198;-84
2022/09/19 13:10:18;;;;;;;1.38;1.27;;;12.50;99.90;;;;;;5055570;28;20260;-83
2022/09/19 13:12:53;;;;;;;1.40;1.30;;;13.00;99.90;;;;;;5056078;28;20202;-84
2022/09/19 13:15:27;;;;;;;0.90;0.90;;;13.10;99.90;;;;;;5055659;28;20273;-84
2022/09/19 13:23:56;;;;;;;0.93;0.93;;;12.90;99.90;;;;;;5014097;28;20249;-84
2022/09/19 13:26:33;;;;;;;0.70;0.70;;;12.80;99.90;;;;;;5048832;28;20214;-84
2022/09/19 13:29:27;;;;;;;1.15;1.08;;;12.60;99.90;;;;;;5055765;28;20279;-84
2022/09/19 13:31:59;;;;;;;1.92;1.23;;;12.40;99.90;;;;;;5054920;28;20202;-84
2022/09/19 13:34:39;;;;;;;1.38;1.30;;;12.50;99.90;;;;;;5054677;28;20225;-84
2022/09/19 13:37:45;;;;;;;2.00;0.93;;;12.50;99.90;;;;;;5035523;28;20217;-84
2022/09/19 13:40:29;;;;;;;1.20;1.10;;;12.60;99.90;;;;;;5035197;28;20230;-84
2022/09/19 13:43:05;;;;;;;0.90;0.90;;;12.60;99.90;;;;;;5047667;28;20201;-84
2022/09/19 13:45:43;;;;;;;1.75;1.65;;;12.70;99.90;;;;;;5055140;28;20229;-84
2022/09/19 13:48:25;;;;;;;0.85;0.85;;;12.80;99.90;;;;;;5054953;28;20198;-84
2022/09/19 13:51:00;;;;;;;0.70;0.70;;;13.20;99.90;;;;;;5054997;28;20225;-84